Sadiqabad Weather



Sadiqabad's Current Weather

Temprature 26.06o few clouds

few clouds

Rain: 0 %

Min Temprature26.06o
Max Temprature26.06o
Humidity22
Wind Speed1.8 m/h
Sun Rise06:00:19
Sun Set18:41:16
Current Time: 09-Apr-2020 01:39:20
Lat/Lon: 28.31, 70.13




Sadiqabad's Geo Location



Sadiqabad's Weather Forecast

Time Overall Temp Min Temp Max Temp Humidity Wind Speed Rain
09-Apr-2020 (Thu)
02:00:00 few clouds 26.060 26.060 26.060 22 1.8 m/h 0 %
05:00:00 few clouds 24.590 24.590 24.590 24 1.65 m/h 0 %
08:00:00 clear sky 29.430 29.430 29.430 19 2.43 m/h 0 %
11:00:00 clear sky 35.340 35.340 35.340 13 3.33 m/h 0 %
14:00:00 broken clouds 38.360 38.360 38.360 10 3.91 m/h 0 %
17:00:00 broken clouds 38.640 38.640 38.640 9 3.83 m/h 0 %
20:00:00 clear sky 32.310 32.310 32.310 13 1.14 m/h 0 %
23:00:00 few clouds 30.320 30.320 30.320 15 0.87 m/h 0 %
10-Apr-2020 (Fri)
02:00:00 few clouds 28.700 28.700 28.700 16 1.55 m/h 0 %
05:00:00 few clouds 27.770 27.770 27.770 19 2.21 m/h 0 %
08:00:00 broken clouds 29.530 29.530 29.530 21 6.61 m/h 0 %
11:00:00 broken clouds 35.000 35.000 35.000 18 6.36 m/h 0 %
14:00:00 scattered clouds 37.420 37.420 37.420 13 2.7 m/h 0 %
17:00:00 scattered clouds 37.850 37.850 37.850 11 2.8 m/h 0 %
20:00:00 broken clouds 32.570 32.570 32.570 16 2.38 m/h 0 %
23:00:00 overcast clouds 30.290 30.290 30.290 22 5.25 m/h 0 %
11-Apr-2020 (Sat)
02:00:00 scattered clouds 27.710 27.710 27.710 29 4.45 m/h 0 %
05:00:00 scattered clouds 26.240 26.240 26.240 32 4.57 m/h 0 %
08:00:00 few clouds 30.180 30.180 30.180 26 5.77 m/h 0 %
11:00:00 clear sky 35.720 35.720 35.720 17 3.05 m/h 0 %
14:00:00 clear sky 38.730 38.730 38.730 13 1.94 m/h 0 %
17:00:00 few clouds 38.840 38.840 38.840 12 3 m/h 0 %
20:00:00 overcast clouds 33.390 33.390 33.390 17 1.46 m/h 0 %
23:00:00 overcast clouds 31.590 31.590 31.590 19 0.74 m/h 0 %
12-Apr-2020 (Sun)
02:00:00 overcast clouds 30.050 30.050 30.050 21 0.68 m/h 0 %
05:00:00 overcast clouds 29.370 29.370 29.370 22 0.96 m/h 0 %
08:00:00 overcast clouds 34.320 34.320 34.320 16 0.36 m/h 0 %
11:00:00 broken clouds 39.830 39.830 39.830 11 3 m/h 0 %
14:00:00 clear sky 42.650 42.650 42.650 8 3.92 m/h 0 %
17:00:00 clear sky 42.190 42.190 42.190 8 3.65 m/h 0 %
20:00:00 light rain 35.530 35.530 35.530 12 1.1 m/h 12 %
23:00:00 broken clouds 33.800 33.800 33.800 14 1.58 m/h 0 %
13-Apr-2020 (Mon)
02:00:00 broken clouds 32.160 32.160 32.160 15 2.27 m/h 0 %
05:00:00 broken clouds 30.860 30.860 30.860 15 3.23 m/h 0 %
08:00:00 clear sky 34.180 34.180 34.180 12 3.1 m/h 0 %
11:00:00 clear sky 40.750 40.750 40.750 9 2.5 m/h 0 %
14:00:00 few clouds 43.730 43.730 43.730 6 5.43 m/h 0 %
17:00:00 clear sky 42.690 42.690 42.690 6 6.24 m/h 0 %
20:00:00 clear sky 36.570 36.570 36.570 8 4.88 m/h 0 %
23:00:00 clear sky 33.800 33.800 33.800 9 7.37 m/h 0 %


Sadiqabad's Tourist Spots

Historical Places in Sadiqabad

Famous Cities (61)